Disclaimer

Please do not use the information listed here in-flight or in-navigation, as they are not provided to us by the airports but are provided by volunteers, so they might be outdated.

Search


Regions


Airport information page

Radio informations:
DAVAO TWR - 118.1 MHz
DAVAO RDO - 124.0 MHz
Automatic Terminal Information Service (ATIS) - 127.0 MHz
DAVAO APP - 122.4 MHz

Airport informations:
Latitude: 07° 07' 31.88" N
Longitude: 125° 38' 44.80" E
Elevation: 96 feet - 29 meters
Operating hours: 24 hour operations
Operating agency: Civil government, landing fees and diplomatic clearance may be required
Timezone: UTC+8
Fuel: Jet A1+, Jet A1 with icing inhibitor.

100/130 octane gasoline, leaded, MIL-L-5572F (GREEN)

80/87 octane gasoline, leaded, MIL-L-5572F (RED)

Runway information:
05/23 - 9842 x 148 feet< - >3000 x 45 meters

Recent METARs:
RPMD 190300Z 35005KT 8000 -RA FEW016 BKN090 OVC290 26/24 Q1011 RMK A2985
RPMD 190400Z 34004KT 9999 FEW016 BKN090 OVC290 26/24 Q1010 RERA RMK A2983
RPMD 190400Z 34004KT 9999 FEW016 BKN090 OVC290 26/24 Q1010 RERA RMK A2983

Airport on the map: